Time,TemperatureF,DewpointF,PressureIn,WindDirection,WindDirectionDegrees,WindSpeedMPH,WindSpeedGustMPH,Humidity,HourlyPrecipIn,Conditions,Clouds,dailyrainin,SoftwareType,DateUTC
2013-07-15 00:22:00,73.0,70.0,-100.00,West,270,0.0,0.0,90,0.00,,,-99.99,,2013-07-15 04:22:00,
2013-07-15 01:02:00,73.0,70.0,-100.00,ESE,110,0.0,0.0,90,0.00,,,-99.99,,2013-07-15 05:02:00,
2013-07-15 01:32:00,72.0,69.0,-100.00,ESE,110,0.0,0.0,90,0.00,,,-99.99,,2013-07-15 05:32:00,
2013-07-15 04:43:00,70.0,67.0,-100.00,NNW,330,0.0,0.0,92,0.00,,,-99.99,,2013-07-15 08:43:00,
2013-07-15 04:53:00,70.0,67.0,-100.00,NW,305,0.0,0.0,92,0.00,,,-99.99,,2013-07-15 08:53:00,
2013-07-15 09:22:00,80.0,74.0,-100.00,West,260,1.0,2.0,80,0.00,,,-99.99,,2013-07-15 13:22:00,
2013-07-15 09:53:00,83.0,73.0,-100.00,NE,55,0.0,1.0,72,0.00,,,-99.99,,2013-07-15 13:53:00,
2013-07-15 10:22:00,86.0,73.0,-100.00,North,355,1.0,1.0,66,0.00,,,-99.99,,2013-07-15 14:22:00,
2013-07-15 11:01:00,86.0,74.0,-100.00,ENE,75,0.0,1.0,67,0.00,,,-99.99,,2013-07-15 15:01:00,
2013-07-15 11:18:00,86.0,71.0,-100.00,ESE,115,0.0,1.0,61,0.00,,,-99.99,,2013-07-15 15:18:00,
2013-07-15 11:28:00,87.0,72.0,-100.00,East,85,0.0,1.0,61,0.00,,,-99.99,,2013-07-15 15:28:00,
2013-07-15 11:53:00,88.0,75.0,-100.00,East,85,0.0,1.0,65,0.00,,,-99.99,,2013-07-15 15:53:00,
2013-07-15 12:15:00,90.0,73.0,-100.00,South,170,0.0,3.0,57,0.00,,,-99.99,,2013-07-15 16:15:00,
2013-07-15 12:24:00,90.0,72.0,-100.00,North,5,0.0,2.0,55,0.00,,,-99.99,,2013-07-15 16:24:00,
2013-07-15 12:33:00,88.0,74.0,-100.00,East,90,0.0,1.0,63,0.00,,,-99.99,,2013-07-15 16:33:00,
2013-07-15 12:52:00,89.0,72.0,-100.00,ESE,115,1.0,4.0,57,0.00,,,-99.99,,2013-07-15 16:52:00,
2013-07-15 13:07:00,90.0,75.0,-100.00,South,170,0.0,2.0,60,0.00,,,-99.99,,2013-07-15 17:07:00,
2013-07-15 13:13:00,87.0,74.0,-100.00,ESE,105,0.0,2.0,66,0.00,,,-99.99,,2013-07-15 17:13:00,
2013-07-15 13:23:00,89.0,74.0,-100.00,SSE,160,0.0,1.0,61,0.00,,,-99.99,,2013-07-15 17:23:00,
2013-07-15 13:36:00,89.0,72.0,-100.00,SSE,150,1.0,5.0,57,0.00,,,-99.99,,2013-07-15 17:36:00,
2013-07-15 13:56:00,87.0,75.0,-100.00,SSE,160,0.0,3.0,66,0.00,,,-99.99,,2013-07-15 17:56:00,
2013-07-15 14:06:00,87.0,75.0,-100.00,SSE,160,0.0,3.0,66,0.00,,,-99.99,,2013-07-15 18:06:00,
2013-07-15 14:17:00,89.0,73.0,-100.00,SW,215,3.0,5.0,59,0.00,,,-99.99,,2013-07-15 18:17:00,
2013-07-15 14:28:00,88.0,75.0,-100.00,SSE,150,1.0,4.0,65,0.00,,,-99.99,,2013-07-15 18:28:00,
2013-07-15 14:38:00,89.0,73.0,-100.00,ESE,115,0.0,1.0,60,0.00,,,-99.99,,2013-07-15 18:38:00,
2013-07-15 14:45:00,89.0,74.0,-100.00,East,95,0.0,0.0,60,0.00,,,-99.99,,2013-07-15 18:45:00,
2013-07-15 15:05:00,89.0,76.0,-100.00,ESE,120,0.0,0.0,67,0.00,,,-99.99,,2013-07-15 19:05:00,
2013-07-15 15:56:00,88.0,74.0,-100.00,ESE,110,0.0,2.0,63,0.00,,,-99.99,,2013-07-15 19:56:00,
2013-07-15 16:17:00,89.0,76.0,-100.00,SE,125,1.0,5.0,65,0.00,,,-99.99,,2013-07-15 20:17:00,
2013-07-15 16:28:00,90.0,76.0,-100.00,ESE,120,0.0,7.0,63,0.00,,,-99.99,,2013-07-15 20:28:00,
2013-07-15 16:37:00,89.0,74.0,-100.00,East,90,0.0,5.0,62,0.00,,,-99.99,,2013-07-15 20:37:00,
2013-07-15 16:54:00,88.0,75.0,-100.00,ESE,120,1.0,6.0,65,0.00,,,-99.99,,2013-07-15 20:54:00,
2013-07-15 17:48:00,87.0,74.0,-100.00,SE,125,0.0,1.0,66,0.00,,,-99.99,,2013-07-15 21:48:00,
2013-07-15 17:57:00,87.0,75.0,-100.00,SE,125,0.0,1.0,68,0.00,,,-99.99,,2013-07-15 21:57:00,
2013-07-15 18:03:00,86.0,75.0,-100.00,East,80,0.0,3.0,69,0.00,,,-99.99,,2013-07-15 22:03:00,
2013-07-15 18:18:00,86.0,75.0,-100.00,East,80,0.0,3.0,69,0.00,,,-99.99,,2013-07-15 22:18:00,
2013-07-15 18:43:00,86.0,74.0,-100.00,SSE,150,0.0,4.0,66,0.00,,,-99.99,,2013-07-15 22:43:00,
2013-07-15 19:06:00,85.0,71.0,-100.00,SSW,205,1.0,5.0,63,0.00,,,-99.99,,2013-07-15 23:06:00,
2013-07-15 19:53:00,83.0,74.0,-100.00,SE,125,0.0,2.0,72,0.00,,,-99.99,,2013-07-15 23:53:00,
2013-07-15 20:33:00,82.0,73.0,-100.00,ESE,115,0.0,0.0,76,0.00,,,-99.99,,2013-07-16 00:33:00,
2013-07-15 21:57:00,78.0,73.0,-100.00,ESE,115,0.0,0.0,85,0.00,,,-99.99,,2013-07-16 01:57:00,
2013-07-15 22:11:00,77.0,73.0,-100.00,ESE,115,0.0,0.0,87,0.00,,,-99.99,,2013-07-16 02:11:00,
2013-07-15 22:28:00,77.0,73.0,-100.00,NW,305,0.0,0.0,87,0.00,,,-99.99,,2013-07-16 02:28:00,
2013-07-15 22:35:00,77.0,73.0,-100.00,NW,305,0.0,0.0,87,0.00,,,-99.99,,2013-07-16 02:35:00,
2013-07-15 22:54:00,76.0,73.0,-100.00,West,270,0.0,0.0,88,0.00,,,-99.99,,2013-07-16 02:54:00,
2013-07-15 23:09:00,76.0,73.0,-100.00,NW,305,0.0,0.0,88,0.00,,,-99.99,,2013-07-16 03:09:00,
2013-07-15 23:17:00,76.0,73.0,-100.00,NW,305,0.0,0.0,88,0.00,,,-99.99,,2013-07-16 03:17:00,
2013-07-15 23:56:00,75.0,72.0,-100.00,WSW,240,0.0,0.0,89,0.00,,,-99.99,,2013-07-16 03:56:00,